sensor_id;sensor_type;location;lat;lon;timestamp;P1;durP1;ratioP1;P2;durP2;ratioP2
1206;SDS011;593;53.184;8.216;2022-09-03T00:01:13;1.00;;;0.90;;
1206;SDS011;593;53.184;8.216;2022-09-03T00:03:43;1.33;;;1.07;;
1206;SDS011;593;53.184;8.216;2022-09-03T00:06:12;1.07;;;1.00;;
1206;SDS011;593;53.184;8.216;2022-09-03T00:09:16;0.80;;;0.80;;
1206;SDS011;593;53.184;8.216;2022-09-03T00:14:13;1.20;;;1.20;;
1206;SDS011;593;53.184;8.216;2022-09-03T00:19:19;1.10;;;1.00;;
1206;SDS011;593;53.184;8.216;2022-09-03T00:21:50;1.20;;;1.10;;
1206;SDS011;593;53.184;8.216;2022-09-03T00:24:22;1.67;;;0.90;;
1206;SDS011;593;53.184;8.216;2022-09-03T00:26:54;2.17;;;0.90;;
1206;SDS011;593;53.184;8.216;2022-09-03T00:29:27;1.10;;;1.00;;
1206;SDS011;593;53.184;8.216;2022-09-03T00:32:00;1.90;;;1.30;;
1206;SDS011;593;53.184;8.216;2022-09-03T00:34:33;1.17;;;0.90;;
1206;SDS011;593;53.184;8.216;2022-09-03T00:37:03;2.00;;;1.33;;
1206;SDS011;593;53.184;8.216;2022-09-03T00:39:29;0.93;;;0.90;;
1206;SDS011;593;53.184;8.216;2022-09-03T00:42:13;0.90;;;0.90;;
1206;SDS011;593;53.184;8.216;2022-09-03T00:45:10;1.47;;;1.20;;
1206;SDS011;593;53.184;8.216;2022-09-03T00:48:05;1.67;;;1.00;;
1206;SDS011;593;53.184;8.216;2022-09-03T00:50:45;1.10;;;0.90;;
1206;SDS011;593;53.184;8.216;2022-09-03T00:53:50;1.30;;;1.20;;
1206;SDS011;593;53.184;8.216;2022-09-03T01:02:40;1.77;;;1.07;;
1206;SDS011;593;53.184;8.216;2022-09-03T01:07:49;1.13;;;1.03;;
1206;SDS011;593;53.184;8.216;2022-09-03T01:13:22;1.87;;;0.93;;
1206;SDS011;593;53.184;8.216;2022-09-03T01:21:37;1.73;;;1.20;;
1206;SDS011;593;53.184;8.216;2022-09-03T01:30:02;1.60;;;1.00;;
1206;SDS011;593;53.184;8.216;2022-09-03T01:35:21;1.40;;;1.03;;
1206;SDS011;593;53.184;8.216;2022-09-03T01:41:05;1.30;;;1.20;;
1206;SDS011;593;53.184;8.216;2022-09-03T01:46:40;1.33;;;1.00;;
1206;SDS011;593;53.184;8.216;2022-09-03T01:49:44;1.20;;;1.10;;
1206;SDS011;593;53.184;8.216;2022-09-03T01:52:09;2.63;;;1.40;;
1206;SDS011;593;53.184;8.216;2022-09-03T02:02:44;1.47;;;1.13;;
1206;SDS011;593;53.184;8.216;2022-09-03T02:07:46;2.83;;;1.27;;
1206;SDS011;593;53.184;8.216;2022-09-03T02:10:15;1.33;;;1.23;;
1206;SDS011;593;53.184;8.216;2022-09-03T02:12:45;1.00;;;1.00;;
1206;SDS011;593;53.184;8.216;2022-09-03T02:15:16;1.50;;;1.10;;
1206;SDS011;593;53.184;8.216;2022-09-03T02:17:44;1.60;;;1.50;;
1206;SDS011;593;53.184;8.216;2022-09-03T02:20:14;1.40;;;1.30;;
1206;SDS011;593;53.184;8.216;2022-09-03T02:22:45;0.97;;;0.87;;
1206;SDS011;593;53.184;8.216;2022-09-03T02:25:12;1.40;;;1.30;;
1206;SDS011;593;53.184;8.216;2022-09-03T02:27:38;1.20;;;1.10;;
1206;SDS011;593;53.184;8.216;2022-09-03T02:30:04;2.13;;;1.93;;
1206;SDS011;593;53.184;8.216;2022-09-03T02:32:30;1.30;;;1.20;;
1206;SDS011;593;53.184;8.216;2022-09-03T02:34:56;1.93;;;1.10;;
1206;SDS011;593;53.184;8.216;2022-09-03T02:37:22;1.23;;;1.13;;
1206;SDS011;593;53.184;8.216;2022-09-03T02:39:47;2.57;;;1.77;;
1206;SDS011;593;53.184;8.216;2022-09-03T02:42:14;1.40;;;1.30;;
1206;SDS011;593;53.184;8.216;2022-09-03T02:44:41;1.30;;;1.20;;
1206;SDS011;593;53.184;8.216;2022-09-03T02:47:27;1.63;;;1.53;;
1206;SDS011;593;53.184;8.216;2022-09-03T02:49:56;1.77;;;1.57;;
1206;SDS011;593;53.184;8.216;2022-09-03T02:52:21;2.77;;;1.33;;
1206;SDS011;593;53.184;8.216;2022-09-03T02:54:46;1.37;;;1.27;;
1206;SDS011;593;53.184;8.216;2022-09-03T02:57:13;1.67;;;1.30;;
1206;SDS011;593;53.184;8.216;2022-09-03T02:59:40;1.90;;;1.23;;
1206;SDS011;593;53.184;8.216;2022-09-03T03:02:08;1.97;;;1.20;;
1206;SDS011;593;53.184;8.216;2022-09-03T03:04:34;1.80;;;1.40;;
1206;SDS011;593;53.184;8.216;2022-09-03T03:07:00;2.03;;;1.33;;
1206;SDS011;593;53.184;8.216;2022-09-03T03:09:25;1.70;;;1.40;;
1206;SDS011;593;53.184;8.216;2022-09-03T03:11:51;1.67;;;1.57;;
1206;SDS011;593;53.184;8.216;2022-09-03T03:14:19;1.53;;;1.43;;
1206;SDS011;593;53.184;8.216;2022-09-03T03:16:44;1.10;;;1.10;;
1206;SDS011;593;53.184;8.216;2022-09-03T03:19:10;1.30;;;0.83;;
1206;SDS011;593;53.184;8.216;2022-09-03T03:21:35;2.83;;;1.10;;
1206;SDS011;593;53.184;8.216;2022-09-03T03:24:01;1.63;;;1.40;;
1206;SDS011;593;53.184;8.216;2022-09-03T03:26:27;1.20;;;1.10;;
1206;SDS011;593;53.184;8.216;2022-09-03T03:28:56;1.17;;;1.10;;
1206;SDS011;593;53.184;8.216;2022-09-03T03:31:23;2.60;;;1.50;;
1206;SDS011;593;53.184;8.216;2022-09-03T03:33:52;1.63;;;1.40;;
1206;SDS011;593;53.184;8.216;2022-09-03T03:36:19;1.77;;;1.17;;
1206;SDS011;593;53.184;8.216;2022-09-03T03:38:46;7.33;;;1.67;;
1206;SDS011;593;53.184;8.216;2022-09-03T03:43:46;2.17;;;1.13;;
1206;SDS011;593;53.184;8.216;2022-09-03T03:46:12;2.00;;;1.40;;
1206;SDS011;593;53.184;8.216;2022-09-03T03:48:39;1.17;;;1.07;;
1206;SDS011;593;53.184;8.216;2022-09-03T03:51:07;1.70;;;1.13;;
1206;SDS011;593;53.184;8.216;2022-09-03T03:53:34;2.13;;;1.23;;
1206;SDS011;593;53.184;8.216;2022-09-03T03:56:02;1.23;;;1.00;;
1206;SDS011;593;53.184;8.216;2022-09-03T03:58:30;1.33;;;1.00;;
1206;SDS011;593;53.184;8.216;2022-09-03T04:01:06;1.40;;;1.30;;
1206;SDS011;593;53.184;8.216;2022-09-03T04:03:34;1.73;;;1.20;;
1206;SDS011;593;53.184;8.216;2022-09-03T04:06:00;1.17;;;1.07;;
1206;SDS011;593;53.184;8.216;2022-09-03T04:08:26;3.57;;;1.20;;
1206;SDS011;593;53.184;8.216;2022-09-03T04:10:52;1.20;;;1.10;;
1206;SDS011;593;53.184;8.216;2022-09-03T04:13:17;1.60;;;1.50;;
1206;SDS011;593;53.184;8.216;2022-09-03T04:15:43;1.07;;;0.97;;
1206;SDS011;593;53.184;8.216;2022-09-03T04:18:09;1.53;;;1.00;;
1206;SDS011;593;53.184;8.216;2022-09-03T04:20:35;1.40;;;1.30;;
1206;SDS011;593;53.184;8.216;2022-09-03T04:23:00;1.60;;;1.50;;
1206;SDS011;593;53.184;8.216;2022-09-03T04:25:26;1.90;;;1.20;;
1206;SDS011;593;53.184;8.216;2022-09-03T04:27:51;1.37;;;1.27;;
1206;SDS011;593;53.184;8.216;2022-09-03T04:30:17;1.73;;;1.27;;
1206;SDS011;593;53.184;8.216;2022-09-03T04:32:43;1.10;;;0.90;;
1206;SDS011;593;53.184;8.216;2022-09-03T04:35:17;1.67;;;1.30;;
1206;SDS011;593;53.184;8.216;2022-09-03T04:37:46;1.70;;;1.60;;
1206;SDS011;593;53.184;8.216;2022-09-03T04:40:11;1.37;;;1.27;;
1206;SDS011;593;53.184;8.216;2022-09-03T04:42:37;3.27;;;1.97;;
1206;SDS011;593;53.184;8.216;2022-09-03T04:45:02;1.10;;;1.00;;
1206;SDS011;593;53.184;8.216;2022-09-03T04:47:28;2.03;;;1.00;;
1206;SDS011;593;53.184;8.216;2022-09-03T04:49:53;1.10;;;1.00;;
1206;SDS011;593;53.184;8.216;2022-09-03T04:52:19;1.60;;;1.47;;
1206;SDS011;593;53.184;8.216;2022-09-03T04:54:44;3.20;;;1.13;;
1206;SDS011;593;53.184;8.216;2022-09-03T04:57:10;1.93;;;1.23;;
1206;SDS011;593;53.184;8.216;2022-09-03T04:59:35;1.10;;;1.00;;
1206;SDS011;593;53.184;8.216;2022-09-03T05:02:00;2.43;;;1.20;;
1206;SDS011;593;53.184;8.216;2022-09-03T05:04:26;1.90;;;1.40;;
1206;SDS011;593;53.184;8.216;2022-09-03T05:06:51;1.80;;;1.20;;
1206;SDS011;593;53.184;8.216;2022-09-03T05:09:17;1.20;;;1.10;;
1206;SDS011;593;53.184;8.216;2022-09-03T05:11:42;1.77;;;1.57;;
1206;SDS011;593;53.184;8.216;2022-09-03T05:14:09;1.77;;;1.60;;
1206;SDS011;593;53.184;8.216;2022-09-03T05:16:38;1.50;;;1.40;;
1206;SDS011;593;53.184;8.216;2022-09-03T05:19:03;1.40;;;1.30;;
1206;SDS011;593;53.184;8.216;2022-09-03T05:21:30;1.57;;;1.20;;
1206;SDS011;593;53.184;8.216;2022-09-03T05:23:56;1.50;;;1.37;;
1206;SDS011;593;53.184;8.216;2022-09-03T05:26:25;2.23;;;1.57;;
1206;SDS011;593;53.184;8.216;2022-09-03T05:29:00;1.90;;;1.30;;
1206;SDS011;593;53.184;8.216;2022-09-03T05:31:30;1.20;;;1.07;;
1206;SDS011;593;53.184;8.216;2022-09-03T05:33:56;1.33;;;1.23;;
1206;SDS011;593;53.184;8.216;2022-09-03T05:36:25;2.30;;;1.53;;
1206;SDS011;593;53.184;8.216;2022-09-03T05:38:53;1.70;;;1.60;;
1206;SDS011;593;53.184;8.216;2022-09-03T05:41:18;1.43;;;1.33;;
1206;SDS011;593;53.184;8.216;2022-09-03T05:43:47;1.60;;;1.50;;
1206;SDS011;593;53.184;8.216;2022-09-03T05:46:20;1.93;;;1.00;;
1206;SDS011;593;53.184;8.216;2022-09-03T05:48:50;2.27;;;1.20;;
1206;SDS011;593;53.184;8.216;2022-09-03T05:51:16;1.53;;;1.20;;
1206;SDS011;593;53.184;8.216;2022-09-03T05:53:42;1.90;;;1.67;;
1206;SDS011;593;53.184;8.216;2022-09-03T05:56:10;1.40;;;1.30;;
1206;SDS011;593;53.184;8.216;2022-09-03T05:58:38;2.40;;;1.13;;
1206;SDS011;593;53.184;8.216;2022-09-03T06:03:56;2.70;;;1.40;;
1206;SDS011;593;53.184;8.216;2022-09-03T06:06:22;2.03;;;1.30;;
1206;SDS011;593;53.184;8.216;2022-09-03T06:08:49;0.87;;;0.87;;
1206;SDS011;593;53.184;8.216;2022-09-03T06:11:19;1.30;;;1.20;;
1206;SDS011;593;53.184;8.216;2022-09-03T06:13:45;2.70;;;1.43;;
1206;SDS011;593;53.184;8.216;2022-09-03T06:16:11;2.63;;;1.60;;
1206;SDS011;593;53.184;8.216;2022-09-03T06:18:37;1.23;;;1.13;;
1206;SDS011;593;53.184;8.216;2022-09-03T06:21:04;1.73;;;1.00;;
1206;SDS011;593;53.184;8.216;2022-09-03T06:23:31;2.77;;;1.27;;
1206;SDS011;593;53.184;8.216;2022-09-03T06:26:02;3.10;;;1.10;;
1206;SDS011;593;53.184;8.216;2022-09-03T06:28:32;1.40;;;1.30;;
1206;SDS011;593;53.184;8.216;2022-09-03T06:30:59;1.10;;;1.00;;
1206;SDS011;593;53.184;8.216;2022-09-03T06:33:26;1.03;;;0.93;;
1206;SDS011;593;53.184;8.216;2022-09-03T06:35:54;1.10;;;1.00;;
1206;SDS011;593;53.184;8.216;2022-09-03T06:38:24;1.20;;;1.10;;
1206;SDS011;593;53.184;8.216;2022-09-03T06:40:54;1.30;;;1.10;;
1206;SDS011;593;53.184;8.216;2022-09-03T06:43:20;1.27;;;1.17;;
1206;SDS011;593;53.184;8.216;2022-09-03T06:48:45;1.20;;;1.10;;
1206;SDS011;593;53.184;8.216;2022-09-03T06:53:53;1.17;;;1.07;;
1206;SDS011;593;53.184;8.216;2022-09-03T06:56:23;3.50;;;1.83;;
1206;SDS011;593;53.184;8.216;2022-09-03T06:58:56;1.10;;;0.90;;
1206;SDS011;593;53.184;8.216;2022-09-03T07:01:23;1.30;;;0.97;;
1206;SDS011;593;53.184;8.216;2022-09-03T07:03:54;1.47;;;1.30;;
1206;SDS011;593;53.184;8.216;2022-09-03T07:06:21;1.23;;;1.10;;
1206;SDS011;593;53.184;8.216;2022-09-03T07:08:48;1.33;;;1.03;;
1206;SDS011;593;53.184;8.216;2022-09-03T07:11:14;2.27;;;0.90;;
1206;SDS011;593;53.184;8.216;2022-09-03T07:13:42;1.13;;;1.03;;
1206;SDS011;593;53.184;8.216;2022-09-03T07:16:16;0.90;;;0.80;;
1206;SDS011;593;53.184;8.216;2022-09-03T07:18:43;6.40;;;1.10;;
1206;SDS011;593;53.184;8.216;2022-09-03T07:21:10;1.77;;;1.00;;
1206;SDS011;593;53.184;8.216;2022-09-03T07:23:37;2.00;;;1.10;;
1206;SDS011;593;53.184;8.216;2022-09-03T07:26:05;2.20;;;0.90;;
1206;SDS011;593;53.184;8.216;2022-09-03T07:28:34;4.13;;;1.30;;
1206;SDS011;593;53.184;8.216;2022-09-03T07:31:04;0.77;;;0.77;;
1206;SDS011;593;53.184;8.216;2022-09-03T07:33:43;1.10;;;1.00;;
1206;SDS011;593;53.184;8.216;2022-09-03T07:36:09;1.40;;;1.30;;
1206;SDS011;593;53.184;8.216;2022-09-03T07:38:38;1.17;;;1.07;;
1206;SDS011;593;53.184;8.216;2022-09-03T07:41:06;1.30;;;1.00;;
1206;SDS011;593;53.184;8.216;2022-09-03T07:43:37;1.57;;;0.87;;
1206;SDS011;593;53.184;8.216;2022-09-03T07:46:22;1.80;;;0.93;;
1206;SDS011;593;53.184;8.216;2022-09-03T07:48:50;1.10;;;1.00;;
1206;SDS011;593;53.184;8.216;2022-09-03T07:51:17;0.80;;;0.70;;
1206;SDS011;593;53.184;8.216;2022-09-03T07:53:45;1.33;;;0.90;;
1206;SDS011;593;53.184;8.216;2022-09-03T07:56:14;1.30;;;1.00;;
1206;SDS011;593;53.184;8.216;2022-09-03T07:58:41;1.40;;;0.80;;
1206;SDS011;593;53.184;8.216;2022-09-03T08:01:11;1.10;;;1.00;;
1206;SDS011;593;53.184;8.216;2022-09-03T08:03:42;1.97;;;0.83;;
1206;SDS011;593;53.184;8.216;2022-09-03T08:06:09;1.37;;;1.00;;
1206;SDS011;593;53.184;8.216;2022-09-03T08:08:36;2.67;;;1.10;;
1206;SDS011;593;53.184;8.216;2022-09-03T08:11:05;3.03;;;1.00;;
1206;SDS011;593;53.184;8.216;2022-09-03T08:13:36;1.10;;;0.90;;
1206;SDS011;593;53.184;8.216;2022-09-03T08:16:05;2.13;;;1.13;;
1206;SDS011;593;53.184;8.216;2022-09-03T08:18:42;1.10;;;1.00;;
1206;SDS011;593;53.184;8.216;2022-09-03T08:21:11;1.00;;;0.90;;
1206;SDS011;593;53.184;8.216;2022-09-03T08:23:40;1.10;;;0.90;;
1206;SDS011;593;53.184;8.216;2022-09-03T08:26:08;0.90;;;0.90;;
1206;SDS011;593;53.184;8.216;2022-09-03T08:28:34;1.43;;;0.90;;
1206;SDS011;593;53.184;8.216;2022-09-03T08:31:10;1.00;;;0.90;;
1206;SDS011;593;53.184;8.216;2022-09-03T08:33:44;2.90;;;0.90;;
1206;SDS011;593;53.184;8.216;2022-09-03T08:36:12;3.23;;;0.97;;
1206;SDS011;593;53.184;8.216;2022-09-03T08:38:39;2.07;;;1.10;;
1206;SDS011;593;53.184;8.216;2022-09-03T08:41:13;2.60;;;1.00;;
1206;SDS011;593;53.184;8.216;2022-09-03T08:46:22;0.90;;;0.90;;
1206;SDS011;593;53.184;8.216;2022-09-03T08:48:57;1.20;;;1.10;;
1206;SDS011;593;53.184;8.216;2022-09-03T08:51:24;1.40;;;1.00;;
1206;SDS011;593;53.184;8.216;2022-09-03T08:53:53;1.53;;;1.13;;
1206;SDS011;593;53.184;8.216;2022-09-03T08:56:27;1.10;;;1.00;;
1206;SDS011;593;53.184;8.216;2022-09-03T08:58:55;2.00;;;1.00;;
1206;SDS011;593;53.184;8.216;2022-09-03T09:06:55;1.50;;;0.90;;
1206;SDS011;593;53.184;8.216;2022-09-03T09:12:09;2.07;;;1.33;;
1206;SDS011;593;53.184;8.216;2022-09-03T09:17:35;1.00;;;0.90;;
1206;SDS011;593;53.184;8.216;2022-09-03T09:20:30;1.63;;;0.70;;
1206;SDS011;593;53.184;8.216;2022-09-03T09:23:00;2.20;;;1.00;;
1206;SDS011;593;53.184;8.216;2022-09-03T09:25:30;2.13;;;0.77;;
1206;SDS011;593;53.184;8.216;2022-09-03T09:28:01;1.53;;;1.10;;
1206;SDS011;593;53.184;8.216;2022-09-03T09:30:35;1.17;;;1.10;;
1206;SDS011;593;53.184;8.216;2022-09-03T09:33:01;1.17;;;0.90;;
1206;SDS011;593;53.184;8.216;2022-09-03T09:35:26;1.10;;;1.00;;
1206;SDS011;593;53.184;8.216;2022-09-03T09:37:56;1.83;;;1.07;;
1206;SDS011;593;53.184;8.216;2022-09-03T09:40:25;1.17;;;0.80;;
1206;SDS011;593;53.184;8.216;2022-09-03T09:43:05;4.30;;;2.10;;
1206;SDS011;593;53.184;8.216;2022-09-03T09:45:33;0.80;;;0.80;;
1206;SDS011;593;53.184;8.216;2022-09-03T09:47:59;1.17;;;1.13;;
1206;SDS011;593;53.184;8.216;2022-09-03T09:50:26;0.93;;;0.83;;
1206;SDS011;593;53.184;8.216;2022-09-03T09:53:08;2.57;;;1.00;;
1206;SDS011;593;53.184;8.216;2022-09-03T09:55:54;0.90;;;0.90;;
1206;SDS011;593;53.184;8.216;2022-09-03T09:58:22;1.27;;;0.90;;
1206;SDS011;593;53.184;8.216;2022-09-03T10:03:48;1.00;;;0.90;;
1206;SDS011;593;53.184;8.216;2022-09-03T10:06:22;1.30;;;1.20;;
1206;SDS011;593;53.184;8.216;2022-09-03T10:09:09;1.03;;;1.03;;
1206;SDS011;593;53.184;8.216;2022-09-03T10:11:36;1.30;;;0.90;;
1206;SDS011;593;53.184;8.216;2022-09-03T10:14:08;2.20;;;0.90;;
1206;SDS011;593;53.184;8.216;2022-09-03T10:16:42;0.90;;;0.90;;
1206;SDS011;593;53.184;8.216;2022-09-03T10:19:28;1.40;;;0.90;;
1206;SDS011;593;53.184;8.216;2022-09-03T10:22:06;1.00;;;0.90;;
1206;SDS011;593;53.184;8.216;2022-09-03T10:27:16;1.77;;;1.00;;
1206;SDS011;593;53.184;8.216;2022-09-03T10:29:42;2.00;;;0.90;;
1206;SDS011;593;53.184;8.216;2022-09-03T10:32:18;0.97;;;0.90;;
1206;SDS011;593;53.184;8.216;2022-09-03T10:34:55;1.00;;;0.70;;
1206;SDS011;593;53.184;8.216;2022-09-03T10:37:52;0.97;;;0.90;;
1206;SDS011;593;53.184;8.216;2022-09-03T10:46:15;0.87;;;0.87;;
1206;SDS011;593;53.184;8.216;2022-09-03T10:51:18;3.53;;;1.13;;
1206;SDS011;593;53.184;8.216;2022-09-03T11:06:56;0.70;;;0.70;;
1206;SDS011;593;53.184;8.216;2022-09-03T11:09:32;1.87;;;0.90;;
1206;SDS011;593;53.184;8.216;2022-09-03T11:12:04;1.20;;;0.80;;
1206;SDS011;593;53.184;8.216;2022-09-03T11:14:34;1.00;;;0.87;;
1206;SDS011;593;53.184;8.216;2022-09-03T11:17:08;1.10;;;0.90;;
1206;SDS011;593;53.184;8.216;2022-09-03T11:20:25;1.43;;;0.80;;
1206;SDS011;593;53.184;8.216;2022-09-03T11:22:39;1.10;;;0.73;;
1206;SDS011;593;53.184;8.216;2022-09-03T11:25:07;1.57;;;0.90;;
1206;SDS011;593;53.184;8.216;2022-09-03T11:30:06;1.63;;;0.90;;
1206;SDS011;593;53.184;8.216;2022-09-03T11:32:44;0.90;;;0.80;;
1206;SDS011;593;53.184;8.216;2022-09-03T11:35:38;0.80;;;0.70;;
1206;SDS011;593;53.184;8.216;2022-09-03T11:40:52;2.60;;;0.77;;
1206;SDS011;593;53.184;8.216;2022-09-03T11:43:28;2.30;;;0.80;;
1206;SDS011;593;53.184;8.216;2022-09-03T11:48:46;0.90;;;0.90;;
1206;SDS011;593;53.184;8.216;2022-09-03T11:56:38;1.83;;;0.80;;
1206;SDS011;593;53.184;8.216;2022-09-03T12:01:43;1.10;;;0.80;;
1206;SDS011;593;53.184;8.216;2022-09-03T12:04:17;0.80;;;0.80;;
1206;SDS011;593;53.184;8.216;2022-09-03T12:06:56;1.13;;;0.73;;
1206;SDS011;593;53.184;8.216;2022-09-03T12:18:03;0.80;;;0.80;;
1206;SDS011;593;53.184;8.216;2022-09-03T12:21:07;0.70;;;0.70;;
1206;SDS011;593;53.184;8.216;2022-09-03T12:26:08;1.10;;;0.80;;
1206;SDS011;593;53.184;8.216;2022-09-03T12:28:44;1.57;;;1.47;;
1206;SDS011;593;53.184;8.216;2022-09-03T12:31:15;1.40;;;0.70;;
1206;SDS011;593;53.184;8.216;2022-09-03T12:34:30;0.70;;;0.70;;
1206;SDS011;593;53.184;8.216;2022-09-03T12:36:37;1.07;;;0.80;;
1206;SDS011;593;53.184;8.216;2022-09-03T12:39:17;1.23;;;0.90;;
1206;SDS011;593;53.184;8.216;2022-09-03T12:41:52;1.00;;;0.90;;
1206;SDS011;593;53.184;8.216;2022-09-03T12:44:25;1.70;;;0.80;;
1206;SDS011;593;53.184;8.216;2022-09-03T12:47:05;1.23;;;0.90;;
1206;SDS011;593;53.184;8.216;2022-09-03T12:49:34;2.20;;;1.10;;
1206;SDS011;593;53.184;8.216;2022-09-03T12:54:47;1.47;;;0.70;;
1206;SDS011;593;53.184;8.216;2022-09-03T12:57:19;1.60;;;0.87;;
1206;SDS011;593;53.184;8.216;2022-09-03T12:59:49;1.13;;;0.80;;
1206;SDS011;593;53.184;8.216;2022-09-03T13:02:22;2.03;;;1.20;;
1206;SDS011;593;53.184;8.216;2022-09-03T13:04:52;2.33;;;1.00;;
1206;SDS011;593;53.184;8.216;2022-09-03T13:07:26;0.83;;;0.80;;
1206;SDS011;593;53.184;8.216;2022-09-03T13:10:02;1.57;;;1.00;;
1206;SDS011;593;53.184;8.216;2022-09-03T13:12:32;1.93;;;1.07;;
1206;SDS011;593;53.184;8.216;2022-09-03T13:15:06;1.67;;;0.90;;
1206;SDS011;593;53.184;8.216;2022-09-03T13:31:39;0.80;;;0.80;;
1206;SDS011;593;53.184;8.216;2022-09-03T13:34:21;0.70;;;0.70;;
1206;SDS011;593;53.184;8.216;2022-09-03T13:36:58;0.80;;;0.80;;
1206;SDS011;593;53.184;8.216;2022-09-03T13:39:45;0.97;;;0.90;;
1206;SDS011;593;53.184;8.216;2022-09-03T13:45:12;1.03;;;0.90;;
1206;SDS011;593;53.184;8.216;2022-09-03T13:53:40;0.90;;;0.77;;
1206;SDS011;593;53.184;8.216;2022-09-03T13:59:19;1.37;;;1.00;;
1206;SDS011;593;53.184;8.216;2022-09-03T14:13:11;1.00;;;0.70;;
1206;SDS011;593;53.184;8.216;2022-09-03T14:15:42;0.80;;;0.80;;
1206;SDS011;593;53.184;8.216;2022-09-03T14:21:07;1.57;;;1.10;;
1206;SDS011;593;53.184;8.216;2022-09-03T14:26:29;5.07;;;0.90;;
1206;SDS011;593;53.184;8.216;2022-09-03T14:29:03;1.10;;;1.00;;
1206;SDS011;593;53.184;8.216;2022-09-03T14:58:59;1.00;;;0.90;;
1206;SDS011;593;53.184;8.216;2022-09-03T15:01:37;0.90;;;0.80;;
1206;SDS011;593;53.184;8.216;2022-09-03T15:06:44;1.00;;;0.90;;
1206;SDS011;593;53.184;8.216;2022-09-03T15:09:37;1.30;;;1.20;;
1206;SDS011;593;53.184;8.216;2022-09-03T15:14:45;1.03;;;1.00;;
1206;SDS011;593;53.184;8.216;2022-09-03T15:20:16;1.23;;;0.90;;
1206;SDS011;593;53.184;8.216;2022-09-03T15:28:40;0.90;;;0.90;;
1206;SDS011;593;53.184;8.216;2022-09-03T15:34:02;0.90;;;0.90;;
1206;SDS011;593;53.184;8.216;2022-09-03T15:36:50;1.73;;;0.90;;
1206;SDS011;593;53.184;8.216;2022-09-03T15:39:22;2.00;;;0.70;;
1206;SDS011;593;53.184;8.216;2022-09-03T15:44:38;1.40;;;1.00;;
1206;SDS011;593;53.184;8.216;2022-09-03T15:47:13;1.27;;;0.80;;
1206;SDS011;593;53.184;8.216;2022-09-03T15:50:00;1.53;;;0.90;;
1206;SDS011;593;53.184;8.216;2022-09-03T15:52:44;1.83;;;0.87;;
1206;SDS011;593;53.184;8.216;2022-09-03T15:55:29;1.00;;;0.87;;
1206;SDS011;593;53.184;8.216;2022-09-03T15:58:00;0.77;;;0.70;;
1206;SDS011;593;53.184;8.216;2022-09-03T16:00:53;3.40;;;0.90;;
1206;SDS011;593;53.184;8.216;2022-09-03T16:09:23;0.70;;;0.70;;
1206;SDS011;593;53.184;8.216;2022-09-03T16:17:51;1.00;;;0.90;;
1206;SDS011;593;53.184;8.216;2022-09-03T16:20:21;1.10;;;1.00;;
1206;SDS011;593;53.184;8.216;2022-09-03T16:22:56;0.70;;;0.70;;
1206;SDS011;593;53.184;8.216;2022-09-03T16:25:45;1.67;;;1.10;;
1206;SDS011;593;53.184;8.216;2022-09-03T16:28:29;1.87;;;0.87;;
1206;SDS011;593;53.184;8.216;2022-09-03T16:33:52;1.00;;;0.80;;
1206;SDS011;593;53.184;8.216;2022-09-03T16:36:31;1.00;;;0.90;;
1206;SDS011;593;53.184;8.216;2022-09-03T16:47:40;3.10;;;1.00;;
1206;SDS011;593;53.184;8.216;2022-09-03T17:01:09;1.70;;;1.40;;
1206;SDS011;593;53.184;8.216;2022-09-03T17:09:24;1.43;;;0.83;;
1206;SDS011;593;53.184;8.216;2022-09-03T17:14:57;0.90;;;0.90;;
1206;SDS011;593;53.184;8.216;2022-09-03T17:20:47;1.07;;;0.90;;
1206;SDS011;593;53.184;8.216;2022-09-03T17:26:10;2.10;;;1.07;;
1206;SDS011;593;53.184;8.216;2022-09-03T17:31:41;1.97;;;0.80;;
1206;SDS011;593;53.184;8.216;2022-09-03T17:48:46;1.03;;;0.97;;
1206;SDS011;593;53.184;8.216;2022-09-03T17:54:03;1.73;;;1.30;;
1206;SDS011;593;53.184;8.216;2022-09-03T18:02:15;4.90;;;4.50;;
1206;SDS011;593;53.184;8.216;2022-09-03T18:04:58;2.77;;;2.67;;
1206;SDS011;593;53.184;8.216;2022-09-03T18:12:50;16.00;;;14.30;;
1206;SDS011;593;53.184;8.216;2022-09-03T18:15:36;9.87;;;8.93;;
1206;SDS011;593;53.184;8.216;2022-09-03T18:18:19;11.70;;;10.70;;
1206;SDS011;593;53.184;8.216;2022-09-03T18:20:58;7.87;;;7.23;;
1206;SDS011;593;53.184;8.216;2022-09-03T18:26:43;2.80;;;2.60;;
1206;SDS011;593;53.184;8.216;2022-09-03T18:29:38;1.63;;;1.53;;
1206;SDS011;593;53.184;8.216;2022-09-03T18:32:26;1.53;;;1.30;;
1206;SDS011;593;53.184;8.216;2022-09-03T18:35:12;1.30;;;1.20;;
1206;SDS011;593;53.184;8.216;2022-09-03T18:37:56;1.53;;;1.30;;
1206;SDS011;593;53.184;8.216;2022-09-03T18:40:47;1.30;;;1.20;;
1206;SDS011;593;53.184;8.216;2022-09-03T18:44:01;1.13;;;1.03;;
1206;SDS011;593;53.184;8.216;2022-09-03T18:50:21;1.63;;;1.27;;
1206;SDS011;593;53.184;8.216;2022-09-03T18:56:02;5.30;;;1.27;;
1206;SDS011;593;53.184;8.216;2022-09-03T19:02:10;1.40;;;1.30;;
1206;SDS011;593;53.184;8.216;2022-09-03T19:05:18;1.60;;;1.07;;
1206;SDS011;593;53.184;8.216;2022-09-03T19:08:14;1.67;;;1.20;;
1206;SDS011;593;53.184;8.216;2022-09-03T19:11:09;2.67;;;1.20;;
1206;SDS011;593;53.184;8.216;2022-09-03T19:14:31;1.50;;;1.20;;
1206;SDS011;593;53.184;8.216;2022-09-03T19:17:26;2.13;;;1.60;;
1206;SDS011;593;53.184;8.216;2022-09-03T19:20:30;1.47;;;1.30;;
1206;SDS011;593;53.184;8.216;2022-09-03T19:23:16;1.33;;;1.20;;
1206;SDS011;593;53.184;8.216;2022-09-03T19:26:05;1.60;;;1.27;;
1206;SDS011;593;53.184;8.216;2022-09-03T19:29:08;1.37;;;1.27;;
1206;SDS011;593;53.184;8.216;2022-09-03T19:32:03;1.30;;;1.20;;
1206;SDS011;593;53.184;8.216;2022-09-03T19:35:18;1.37;;;1.27;;
1206;SDS011;593;53.184;8.216;2022-09-03T19:44:45;2.07;;;1.07;;
1206;SDS011;593;53.184;8.216;2022-09-03T19:47:48;1.30;;;1.20;;
1206;SDS011;593;53.184;8.216;2022-09-03T19:50:37;2.30;;;1.10;;
1206;SDS011;593;53.184;8.216;2022-09-03T19:53:26;1.20;;;1.00;;
1206;SDS011;593;53.184;8.216;2022-09-03T19:56:18;1.47;;;0.90;;
1206;SDS011;593;53.184;8.216;2022-09-03T19:59:11;1.70;;;1.13;;
1206;SDS011;593;53.184;8.216;2022-09-03T20:02:00;2.53;;;1.00;;
1206;SDS011;593;53.184;8.216;2022-09-03T20:04:50;1.10;;;1.00;;
1206;SDS011;593;53.184;8.216;2022-09-03T20:07:40;1.80;;;0.90;;
1206;SDS011;593;53.184;8.216;2022-09-03T20:10:25;2.00;;;0.90;;
1206;SDS011;593;53.184;8.216;2022-09-03T20:15:21;2.07;;;1.20;;
1206;SDS011;593;53.184;8.216;2022-09-03T20:17:53;1.10;;;0.90;;
1206;SDS011;593;53.184;8.216;2022-09-03T20:23:11;1.10;;;1.00;;
1206;SDS011;593;53.184;8.216;2022-09-03T20:28:55;1.47;;;1.13;;
1206;SDS011;593;53.184;8.216;2022-09-03T20:34:23;1.00;;;0.90;;
1206;SDS011;593;53.184;8.216;2022-09-03T20:43:04;1.43;;;0.90;;
1206;SDS011;593;53.184;8.216;2022-09-03T20:51:34;1.30;;;1.20;;
1206;SDS011;593;53.184;8.216;2022-09-03T20:59:53;3.57;;;1.00;;
1206;SDS011;593;53.184;8.216;2022-09-03T21:06:01;2.63;;;0.90;;
1206;SDS011;593;53.184;8.216;2022-09-03T21:08:33;1.40;;;0.90;;
1206;SDS011;593;53.184;8.216;2022-09-03T21:14:05;1.30;;;1.20;;
1206;SDS011;593;53.184;8.216;2022-09-03T21:16:57;1.30;;;1.20;;
1206;SDS011;593;53.184;8.216;2022-09-03T21:19:51;3.43;;;1.33;;
1206;SDS011;593;53.184;8.216;2022-09-03T21:28:00;2.00;;;1.33;;
1206;SDS011;593;53.184;8.216;2022-09-03T21:30:30;1.00;;;0.80;;
1206;SDS011;593;53.184;8.216;2022-09-03T21:33:03;1.27;;;1.17;;
1206;SDS011;593;53.184;8.216;2022-09-03T21:35:50;2.90;;;1.00;;
1206;SDS011;593;53.184;8.216;2022-09-03T21:38:26;1.23;;;0.97;;
1206;SDS011;593;53.184;8.216;2022-09-03T21:41:09;2.30;;;1.20;;
1206;SDS011;593;53.184;8.216;2022-09-03T21:43:50;1.10;;;0.90;;
1206;SDS011;593;53.184;8.216;2022-09-03T21:46:20;1.30;;;1.00;;
1206;SDS011;593;53.184;8.216;2022-09-03T21:48:57;1.97;;;1.87;;
1206;SDS011;593;53.184;8.216;2022-09-03T21:54:07;1.20;;;1.10;;
1206;SDS011;593;53.184;8.216;2022-09-03T22:01:45;1.90;;;1.07;;
1206;SDS011;593;53.184;8.216;2022-09-03T22:04:23;4.57;;;1.10;;
1206;SDS011;593;53.184;8.216;2022-09-03T22:06:53;1.20;;;1.10;;
1206;SDS011;593;53.184;8.216;2022-09-03T22:09:28;1.67;;;0.90;;
1206;SDS011;593;53.184;8.216;2022-09-03T22:14:34;1.13;;;1.13;;
1206;SDS011;593;53.184;8.216;2022-09-03T22:17:12;1.20;;;1.00;;
1206;SDS011;593;53.184;8.216;2022-09-03T22:20:02;1.47;;;1.30;;
1206;SDS011;593;53.184;8.216;2022-09-03T22:22:40;1.30;;;1.20;;